Time,TemperatureF,DewpointF,PressureIn,WindDirection,WindDirectionDegrees,WindSpeedMPH,WindSpeedGustMPH,Humidity,HourlyPrecipIn,Conditions,Clouds,dailyrainin,SolarRadiationWatts/m^2,SoftwareType,DateUTC
2013-07-21 00:08:00,73.0,68.0,-100.00,SSW,213,3.0,7.0,84,0.00,,,0.05,143.000000,,2013-07-21 00:08:00,
2013-07-21 00:45:00,72.0,70.0,-100.00,South,176,3.0,5.0,92,0.01,,,0.06,12.000000,,2013-07-21 00:45:00,
2013-07-21 00:56:00,72.0,70.0,-100.00,South,176,3.0,5.0,92,0.01,,,0.06,12.000000,,2013-07-21 00:56:00,
2013-07-21 01:13:00,72.0,70.0,-100.00,South,176,3.0,5.0,92,0.01,,,0.06,12.000000,,2013-07-21 01:13:00,
2013-07-21 01:17:00,71.0,69.0,-100.00,SE,135,3.0,6.0,93,0.00,,,0.06,2.000000,,2013-07-21 01:17:00,
2013-07-21 01:49:00,-999.0,-99.9,-100.00,SE,135,3.0,6.0,-999,-99.99,,,-99.99,2.000000,,2013-07-21 01:49:00,
2013-07-21 01:59:00,71.0,69.0,-100.00,SE,135,3.0,6.0,93,0.00,,,0.06,2.000000,,2013-07-21 01:59:00,
2013-07-21 02:06:00,71.0,69.0,-100.00,SE,135,3.0,6.0,93,0.00,,,0.06,2.000000,,2013-07-21 02:06:00,
2013-07-21 02:47:00,70.0,68.0,-100.00,SSW,207,1.0,6.0,94,0.00,,,0.05,0.000000,,2013-07-21 02:47:00,
2013-07-21 02:58:00,70.0,68.0,-100.00,SSW,207,1.0,6.0,94,0.00,,,0.05,0.000000,,2013-07-21 02:58:00,
2013-07-21 03:05:00,70.0,68.0,-100.00,SSW,207,1.0,6.0,94,0.00,,,0.05,0.000000,,2013-07-21 03:05:00,
2013-07-21 03:14:00,70.0,68.0,-100.00,SSW,207,1.0,6.0,94,0.00,,,0.05,0.000000,,2013-07-21 03:14:00,
2013-07-21 03:47:00,69.0,68.0,-100.00,SE,131,1.0,4.0,96,0.00,,,0.05,0.000000,,2013-07-21 03:47:00,
2013-07-21 04:00:00,69.0,68.0,-100.00,SE,131,1.0,4.0,96,0.00,,,0.05,0.000000,,2013-07-21 04:00:00,
2013-07-21 04:01:00,69.0,68.0,-100.00,SE,131,1.0,4.0,96,0.00,,,0.05,0.000000,,2013-07-21 04:01:00,
2013-07-21 04:11:00,69.0,68.0,-100.00,SE,131,1.0,4.0,96,0.00,,,0.05,0.000000,,2013-07-21 04:11:00,
2013-07-21 04:43:00,68.0,67.0,-100.00,ENE,66,2.0,4.0,96,0.00,,,0.04,0.000000,,2013-07-21 04:43:00,
2013-07-21 04:53:00,68.0,67.0,-100.00,ENE,66,2.0,4.0,96,0.00,,,0.04,0.000000,,2013-07-21 04:53:00,
2013-07-21 05:02:00,68.0,67.0,-100.00,ENE,66,2.0,4.0,96,0.00,,,0.04,0.000000,,2013-07-21 05:02:00,
2013-07-21 05:11:00,68.0,67.0,-100.00,ENE,66,2.0,4.0,96,0.00,,,0.04,0.000000,,2013-07-21 05:11:00,
2013-07-21 05:42:00,69.0,68.0,-100.00,WSW,246,1.0,5.0,97,0.00,,,0.04,0.000000,,2013-07-21 05:42:00,
2013-07-21 05:52:00,69.0,68.0,-100.00,WSW,246,1.0,5.0,97,0.00,,,0.04,0.000000,,2013-07-21 05:52:00,
2013-07-21 06:01:00,69.0,68.0,-100.00,WSW,246,1.0,5.0,97,0.00,,,0.04,0.000000,,2013-07-21 06:01:00,
2013-07-21 06:11:00,69.0,68.0,-100.00,WSW,246,1.0,5.0,97,0.00,,,0.04,0.000000,,2013-07-21 06:11:00,
2013-07-21 06:43:00,69.0,68.0,-100.00,NW,306,2.0,3.0,97,0.00,,,0.04,0.000000,,2013-07-21 06:43:00,
2013-07-21 06:53:00,69.0,68.0,-100.00,NW,306,2.0,3.0,97,0.00,,,0.04,0.000000,,2013-07-21 06:53:00,
2013-07-21 07:01:00,69.0,68.0,-100.00,NW,306,2.0,3.0,97,0.00,,,0.04,0.000000,,2013-07-21 07:01:00,
2013-07-21 07:11:00,69.0,68.0,-100.00,NW,306,2.0,3.0,97,0.00,,,0.04,0.000000,,2013-07-21 07:11:00,
2013-07-21 07:43:00,69.0,68.0,-100.00,East,97,2.0,3.0,97,0.00,,,0.04,0.000000,,2013-07-21 07:43:00,
2013-07-21 07:53:00,69.0,68.0,-100.00,East,97,2.0,3.0,97,0.00,,,0.04,0.000000,,2013-07-21 07:53:00,
2013-07-21 08:02:00,69.0,68.0,-100.00,East,97,2.0,3.0,97,0.00,,,0.04,0.000000,,2013-07-21 08:02:00,
2013-07-21 08:11:00,69.0,68.0,-100.00,East,97,2.0,3.0,97,0.00,,,0.04,0.000000,,2013-07-21 08:11:00,
2013-07-21 08:43:00,69.0,68.0,-100.00,East,91,2.0,7.0,97,0.06,,,0.10,0.000000,,2013-07-21 08:43:00,
2013-07-21 08:52:00,69.0,68.0,-100.00,East,91,2.0,7.0,97,0.06,,,0.10,0.000000,,2013-07-21 08:52:00,
2013-07-21 09:02:00,69.0,68.0,-100.00,East,91,2.0,7.0,97,0.06,,,0.10,0.000000,,2013-07-21 09:02:00,
2013-07-21 09:12:00,69.0,68.0,-100.00,East,91,2.0,7.0,97,0.06,,,0.10,0.000000,,2013-07-21 09:12:00,
2013-07-21 09:42:00,69.0,68.0,-100.00,SW,216,2.0,5.0,97,0.00,,,0.10,0.000000,,2013-07-21 09:42:00,
2013-07-21 09:52:00,69.0,68.0,-100.00,SW,216,2.0,5.0,97,0.00,,,0.10,0.000000,,2013-07-21 09:52:00,
2013-07-21 10:02:00,69.0,68.0,-100.00,SW,216,2.0,5.0,97,0.00,,,0.10,0.000000,,2013-07-21 10:02:00,
2013-07-21 10:11:00,69.0,68.0,-100.00,SW,216,2.0,5.0,97,0.00,,,0.10,0.000000,,2013-07-21 10:11:00,
2013-07-21 10:43:00,68.0,67.0,-100.00,NNE,26,2.0,4.0,97,0.00,,,0.10,0.000000,,2013-07-21 10:43:00,
2013-07-21 10:52:00,68.0,67.0,-100.00,NNE,26,2.0,4.0,97,0.00,,,0.10,0.000000,,2013-07-21 10:52:00,
2013-07-21 11:02:00,68.0,67.0,-100.00,NNE,26,2.0,4.0,97,0.00,,,0.10,0.000000,,2013-07-21 11:02:00,
2013-07-21 11:12:00,68.0,67.0,-100.00,NNE,26,2.0,4.0,97,0.00,,,0.10,0.000000,,2013-07-21 11:12:00,
2013-07-21 11:43:00,69.0,68.0,-100.00,ENE,72,1.0,4.0,97,0.00,,,0.08,30.000000,,2013-07-21 11:43:00,
2013-07-21 11:52:00,69.0,68.0,-100.00,ENE,72,1.0,4.0,97,0.00,,,0.08,30.000000,,2013-07-21 11:52:00,
2013-07-21 12:01:00,69.0,68.0,-100.00,ENE,72,1.0,4.0,97,0.00,,,0.08,30.000000,,2013-07-21 12:01:00,
2013-07-21 12:11:00,69.0,68.0,-100.00,ENE,72,1.0,4.0,97,0.00,,,0.08,30.000000,,2013-07-21 12:11:00,
2013-07-21 12:43:00,72.0,69.0,-100.00,ESE,109,2.0,4.0,91,0.00,,,0.08,129.000000,,2013-07-21 12:43:00,
2013-07-21 12:53:00,72.0,69.0,-100.00,ESE,109,2.0,4.0,91,0.00,,,0.08,129.000000,,2013-07-21 12:53:00,
2013-07-21 13:02:00,72.0,69.0,-100.00,ESE,109,2.0,4.0,91,0.00,,,0.08,129.000000,,2013-07-21 13:02:00,
2013-07-21 13:12:00,72.0,69.0,-100.00,ESE,109,2.0,4.0,91,0.00,,,0.08,129.000000,,2013-07-21 13:12:00,
2013-07-21 13:43:00,77.0,71.0,-100.00,West,269,3.0,5.0,81,0.00,,,0.08,339.000000,,2013-07-21 13:43:00,
2013-07-21 13:53:00,77.0,71.0,-100.00,West,269,3.0,5.0,81,0.00,,,0.08,339.000000,,2013-07-21 13:53:00,
2013-07-21 14:01:00,77.0,71.0,-100.00,West,269,3.0,5.0,81,0.00,,,0.08,339.000000,,2013-07-21 14:01:00,
2013-07-21 14:12:00,77.0,71.0,-100.00,West,269,3.0,5.0,81,0.00,,,0.08,339.000000,,2013-07-21 14:12:00,
2013-07-21 14:43:00,79.0,71.0,-100.00,NNE,21,2.0,6.0,77,0.00,,,0.08,291.000000,,2013-07-21 14:43:00,
2013-07-21 14:53:00,79.0,71.0,-100.00,NNE,21,2.0,6.0,77,0.00,,,0.08,291.000000,,2013-07-21 14:53:00,
2013-07-21 15:02:00,79.0,71.0,-100.00,NNE,21,2.0,6.0,77,0.00,,,0.08,291.000000,,2013-07-21 15:02:00,
2013-07-21 15:11:00,79.0,71.0,-100.00,NNE,21,2.0,6.0,77,0.00,,,0.08,291.000000,,2013-07-21 15:11:00,
2013-07-21 15:43:00,68.0,65.0,-100.00,SE,136,3.0,22.0,89,0.35,,,0.43,43.000000,,2013-07-21 15:43:00,
2013-07-21 15:53:00,68.0,65.0,-100.00,SE,136,3.0,22.0,89,0.35,,,0.43,43.000000,,2013-07-21 15:53:00,
2013-07-21 16:01:00,68.0,65.0,-100.00,SE,136,3.0,22.0,89,0.35,,,0.43,43.000000,,2013-07-21 16:01:00,
2013-07-21 16:11:00,68.0,65.0,-100.00,SE,136,3.0,22.0,89,0.35,,,0.43,43.000000,,2013-07-21 16:11:00,
2013-07-21 16:43:00,71.0,68.0,-100.00,West,259,4.0,7.0,89,0.01,,,0.44,227.000000,,2013-07-21 16:43:00,
2013-07-21 16:52:00,71.0,68.0,-100.00,West,259,4.0,7.0,89,0.01,,,0.44,227.000000,,2013-07-21 16:52:00,
2013-07-21 17:02:00,71.0,68.0,-100.00,West,259,4.0,7.0,89,0.01,,,0.44,227.000000,,2013-07-21 17:02:00,
2013-07-21 17:11:00,71.0,68.0,-100.00,West,259,4.0,7.0,89,0.01,,,0.44,227.000000,,2013-07-21 17:11:00,
2013-07-21 17:43:00,72.0,68.0,-100.00,WSW,242,3.0,7.0,87,0.01,,,0.45,199.000000,,2013-07-21 17:43:00,
2013-07-21 17:53:00,72.0,68.0,-100.00,WSW,242,3.0,7.0,87,0.01,,,0.45,199.000000,,2013-07-21 17:53:00,
2013-07-21 18:01:00,72.0,68.0,-100.00,WSW,242,3.0,7.0,87,0.01,,,0.45,199.000000,,2013-07-21 18:01:00,
2013-07-21 18:11:00,72.0,68.0,-100.00,WSW,242,3.0,7.0,87,0.01,,,0.45,199.000000,,2013-07-21 18:11:00,
2013-07-21 18:43:00,76.0,70.0,-100.00,SSW,203,2.0,6.0,83,0.00,,,0.45,393.000000,,2013-07-21 18:43:00,
2013-07-21 18:52:00,76.0,70.0,-100.00,SSW,203,2.0,6.0,83,0.00,,,0.45,393.000000,,2013-07-21 18:52:00,
2013-07-21 19:01:00,76.0,70.0,-100.00,SSW,203,2.0,6.0,83,0.00,,,0.45,393.000000,,2013-07-21 19:01:00,
2013-07-21 19:11:00,76.0,70.0,-100.00,SSW,203,2.0,6.0,83,0.00,,,0.45,393.000000,,2013-07-21 19:11:00,
2013-07-21 19:42:00,82.0,71.0,-100.00,West,264,4.0,7.0,70,0.00,,,0.45,747.000000,,2013-07-21 19:42:00,
2013-07-21 19:52:00,82.0,71.0,-100.00,West,264,4.0,7.0,70,0.00,,,0.45,747.000000,,2013-07-21 19:52:00,
2013-07-21 20:02:00,82.0,71.0,-100.00,West,264,4.0,7.0,70,0.00,,,0.45,747.000000,,2013-07-21 20:02:00,
2013-07-21 20:12:00,82.0,71.0,-100.00,West,264,4.0,7.0,70,0.00,,,0.45,747.000000,,2013-07-21 20:12:00,
2013-07-21 20:43:00,83.0,67.0,-100.00,WNW,292,3.0,7.0,59,0.00,,,0.45,654.000000,,2013-07-21 20:43:00,
2013-07-21 20:52:00,83.0,67.0,-100.00,WNW,292,3.0,7.0,59,0.00,,,0.45,654.000000,,2013-07-21 20:52:00,
2013-07-21 21:01:00,83.0,67.0,-100.00,WNW,292,3.0,7.0,59,0.00,,,0.45,654.000000,,2013-07-21 21:01:00,
2013-07-21 21:11:00,83.0,67.0,-100.00,WNW,292,3.0,7.0,59,0.00,,,0.45,654.000000,,2013-07-21 21:11:00,
2013-07-21 21:43:00,84.0,70.0,-100.00,WNW,282,4.0,8.0,62,0.00,,,-99.99,532.000000,,2013-07-21 21:43:00,
2013-07-21 21:52:00,84.0,70.0,-100.00,WNW,282,4.0,8.0,62,0.00,,,-99.99,532.000000,,2013-07-21 21:52:00,
2013-07-21 22:01:00,84.0,70.0,-100.00,WNW,282,4.0,8.0,62,0.00,,,-99.99,532.000000,,2013-07-21 22:01:00,
2013-07-21 22:11:00,84.0,70.0,-100.00,WNW,282,4.0,8.0,62,0.00,,,-99.99,532.000000,,2013-07-21 22:11:00,
2013-07-21 22:43:00,81.0,69.0,-100.00,East,93,3.0,6.0,66,0.00,,,0.44,268.000000,,2013-07-21 22:43:00,
2013-07-21 22:52:00,81.0,69.0,-100.00,East,93,3.0,6.0,66,0.00,,,0.44,268.000000,,2013-07-21 22:52:00,
2013-07-21 23:02:00,81.0,69.0,-100.00,East,93,3.0,6.0,66,0.00,,,0.44,268.000000,,2013-07-21 23:02:00,
2013-07-21 23:11:00,81.0,69.0,-100.00,East,93,3.0,6.0,66,0.00,,,0.44,268.000000,,2013-07-21 23:11:00,
2013-07-21 23:43:00,79.0,70.0,-100.00,South,172,1.0,5.0,75,0.00,,,0.44,132.000000,,2013-07-21 23:43:00,
2013-07-21 23:53:00,79.0,70.0,-100.00,South,172,1.0,5.0,75,0.00,,,0.44,132.000000,,2013-07-21 23:53:00,